Lewisburg, Louisiana
Current Conditions -  °F | °C
As of 10:53 PM on Tuesday 25 Nov 2014 (Local Time) from KASD Reporting Station
Clear Clear  
Wind Chill: 43°   Ceiling: Unl
Heat Index: 43°   Visibility: 10mi
Dew Point: 33°   Wind: 3mph
Humidity: 68%   Direction: 320°NW
Pressure: 30.21"   Gusts: NA
Location:  30.3898°N, 90.0068°W
Report Text: KASD 260453Z AUTO 32003KT 10SM CLR 06/01 A3021 RMK AO2 SLP230 T00610006
Loading
Personal Weather Stations






























Interactive Weather Map New forecast layout! Learn more

10-Day Weather Forecast

Advertisements
Track Severe Weather on mobile